Time;durP1;ratioP1;P1;durP2;ratioP2;P2;SDS_P1;SDS_P2;PMS_P1;PMS_P2;Temp;Humidity;BMP_temperature;BMP_pressure;BME280_temperature;BME280_humidity;BME280_pressure;Samples;Min_cycle;Max_cycle;Signal;HPM_P1;HPM_P2
2022/07/02 00:01:03;;;;;;;9.05;7.70;;;22.20;99.90;;;;;;5052875;28;20464;-78
2022/07/02 00:03:33;;;;;;;10.00;7.30;;;22.20;99.90;;;;;;5052909;28;20136;-78
2022/07/02 00:06:02;;;;;;;12.40;8.02;;;22.30;99.90;;;;;;5051261;28;20099;-78
2022/07/02 00:08:30;;;;;;;10.20;7.47;;;22.30;99.90;;;;;;5051700;28;20081;-78
2022/07/02 00:11:00;;;;;;;13.68;6.93;;;22.20;99.90;;;;;;5051363;28;20052;-78
2022/07/02 00:13:29;;;;;;;15.65;7.95;;;22.20;99.90;;;;;;5051832;28;20102;-77
2022/07/02 00:15:56;;;;;;;9.07;7.40;;;22.20;99.90;;;;;;5052074;28;20049;-77
2022/07/02 00:18:25;;;;;;;13.00;7.65;;;22.10;99.90;;;;;;5052314;28;20290;-77
2022/07/02 00:20:54;;;;;;;12.65;7.53;;;22.10;99.90;;;;;;5051687;28;20422;-78
2022/07/02 00:23:21;;;;;;;14.75;7.43;;;22.10;99.90;;;;;;5052593;28;20056;-77
2022/07/02 00:25:54;;;;;;;11.30;7.78;;;22.10;99.90;;;;;;5052191;28;20059;-78
2022/07/02 00:28:24;;;;;;;12.18;6.90;;;22.00;99.90;;;;;;5052185;28;20049;-78
2022/07/02 00:30:52;;;;;;;17.10;7.68;;;22.00;99.90;;;;;;5050914;28;20053;-78
2022/07/02 00:33:20;;;;;;;13.00;7.10;;;22.00;99.90;;;;;;5051645;28;20053;-77
2022/07/02 00:35:49;;;;;;;11.02;7.65;;;22.00;99.90;;;;;;5052148;28;20041;-78
2022/07/02 00:38:16;;;;;;;11.65;7.30;;;21.90;99.90;;;;;;5034301;28;20045;-78
2022/07/02 00:40:45;;;;;;;12.18;7.00;;;21.90;99.90;;;;;;5050814;28;20055;-78
2022/07/02 00:43:13;;;;;;;10.00;7.07;;;21.90;99.90;;;;;;5051846;28;20048;-78
2022/07/02 00:45:41;;;;;;;17.42;7.75;;;21.90;99.90;;;;;;5050468;28;20041;-78
2022/07/02 00:48:08;;;;;;;11.85;7.15;;;21.90;99.90;;;;;;5050957;28;20084;-78
2022/07/02 00:50:35;;;;;;;15.23;7.05;;;21.90;99.90;;;;;;5050164;28;20165;-77
2022/07/02 00:53:04;;;;;;;13.70;8.10;;;21.80;99.90;;;;;;5050509;28;20057;-78
2022/07/02 00:55:32;;;;;;;14.95;7.88;;;21.80;99.90;;;;;;5051844;28;20068;-77
2022/07/02 00:57:59;;;;;;;11.70;7.78;;;21.80;99.90;;;;;;5051718;28;20048;-77
2022/07/02 01:00:27;;;;;;;9.45;7.70;;;21.80;99.90;;;;;;5051479;28;20533;-78
2022/07/02 01:02:57;;;;;;;14.70;8.60;;;21.80;99.90;;;;;;5049619;28;20073;-77
2022/07/02 01:05:25;;;;;;;10.85;7.40;;;21.70;99.90;;;;;;5049583;28;20148;-78
2022/07/02 01:10:16;;;;;;;13.82;7.30;;;21.70;99.90;;;;;;5050228;28;20059;-77
2022/07/02 01:10:46;;;;;;;12.68;8.15;;;21.70;99.90;;;;;;5049826;28;20048;-77
2022/07/02 01:13:14;;;;;;;9.13;7.97;;;21.60;99.90;;;;;;5049980;28;20123;-77
2022/07/02 01:15:41;;;;;;;13.65;9.02;;;21.60;99.90;;;;;;5049818;28;20055;-77
2022/07/02 01:18:10;;;;;;;13.82;9.20;;;21.60;99.90;;;;;;5051018;28;20041;-77
2022/07/02 01:20:38;;;;;;;17.75;11.05;;;21.50;99.90;;;;;;5049703;28;20079;-77
2022/07/02 01:23:06;;;;;;;15.05;9.82;;;21.50;99.90;;;;;;5050011;28;20041;-77
2022/07/02 01:25:33;;;;;;;15.88;10.25;;;21.50;99.90;;;;;;5050940;28;20037;-77
2022/07/02 01:28:01;;;;;;;17.00;11.27;;;21.50;99.90;;;;;;5049782;28;20114;-77
2022/07/02 01:30:28;;;;;;;13.95;10.80;;;21.40;99.90;;;;;;5049503;28;20049;-77
2022/07/02 01:32:55;;;;;;;15.27;11.80;;;21.40;99.90;;;;;;5049758;28;20150;-77
2022/07/02 01:35:23;;;;;;;15.93;12.88;;;21.40;99.90;;;;;;5049768;28;20052;-77
2022/07/02 01:37:52;;;;;;;19.00;13.35;;;21.40;99.90;;;;;;5050683;28;20581;-77
2022/07/02 01:40:21;;;;;;;22.33;13.60;;;21.40;99.90;;;;;;5050890;28;20045;-77
2022/07/02 01:42:48;;;;;;;19.80;12.98;;;21.40;99.90;;;;;;5032735;28;20049;-77
2022/07/02 01:45:15;;;;;;;22.83;13.77;;;21.30;99.90;;;;;;5050390;28;20040;-77
2022/07/02 01:47:43;;;;;;;18.67;11.68;;;21.40;99.90;;;;;;5050645;28;20052;-77
2022/07/02 01:50:10;;;;;;;18.85;11.05;;;21.40;99.90;;;;;;5049301;28;20057;-78
2022/07/02 01:52:37;;;;;;;15.20;9.30;;;21.40;99.90;;;;;;5050576;28;20080;-78
2022/07/02 01:55:06;;;;;;;15.48;9.77;;;21.40;99.90;;;;;;5032842;28;20060;-77
2022/07/02 01:57:36;;;;;;;13.77;9.27;;;21.40;99.90;;;;;;5050729;28;20045;-77
2022/07/02 02:00:04;;;;;;;19.67;9.05;;;21.30;99.90;;;;;;5049070;28;20069;-78
2022/07/02 02:02:32;;;;;;;20.30;9.65;;;21.30;99.90;;;;;;5048876;28;20617;-77
2022/07/02 02:05:00;;;;;;;13.48;8.45;;;21.30;99.90;;;;;;5048567;28;20045;-78
2022/07/02 02:07:27;;;;;;;14.88;8.55;;;21.20;99.90;;;;;;5050563;28;20509;-78
2022/07/02 02:09:54;;;;;;;15.02;8.30;;;21.20;99.90;;;;;;5048815;28;20044;-77
2022/07/02 02:12:22;;;;;;;13.05;8.18;;;21.20;99.90;;;;;;5049022;28;20041;-78
2022/07/02 02:14:51;;;;;;;20.17;8.45;;;21.20;99.90;;;;;;5050836;28;20052;-77
2022/07/02 02:17:18;;;;;;;15.88;8.13;;;21.30;99.90;;;;;;5032550;28;20420;-77
2022/07/02 02:19:45;;;;;;;14.80;8.15;;;21.30;99.90;;;;;;5050524;28;20063;-77
2022/07/02 02:22:13;;;;;;;13.68;8.48;;;21.30;99.90;;;;;;5049566;28;20516;-77
2022/07/02 02:24:40;;;;;;;12.52;7.68;;;21.30;99.90;;;;;;5050556;28;20071;-77
2022/07/02 02:27:08;;;;;;;12.13;7.90;;;21.30;99.90;;;;;;5048658;28;20056;-77
2022/07/02 02:29:35;;;;;;;16.33;8.15;;;21.30;99.90;;;;;;5049170;28;20056;-77
2022/07/02 02:32:05;;;;;;;15.27;8.25;;;21.30;99.90;;;;;;5048640;28;20049;-77
2022/07/02 02:34:32;;;;;;;10.90;8.23;;;21.30;99.90;;;;;;5048553;28;20059;-77
2022/07/02 02:36:59;;;;;;;16.42;8.23;;;21.30;99.90;;;;;;5050063;28;20501;-77
2022/07/02 02:39:27;;;;;;;10.82;7.97;;;21.30;99.90;;;;;;5048879;28;20078;-77
2022/07/02 02:41:54;;;;;;;15.48;7.78;;;21.30;99.90;;;;;;5050594;28;20468;-77
2022/07/02 02:44:22;;;;;;;17.52;8.23;;;21.30;99.90;;;;;;5050644;28;20625;-78
2022/07/02 02:46:49;;;;;;;11.88;7.50;;;21.30;99.90;;;;;;5052799;28;20107;-77
2022/07/02 02:49:19;;;;;;;18.55;8.48;;;21.30;99.90;;;;;;5053001;28;20519;-78
2022/07/02 02:51:46;;;;;;;12.32;7.78;;;21.30;99.90;;;;;;5052868;28;20056;-77
2022/07/02 02:54:13;;;;;;;16.27;9.50;;;21.20;99.90;;;;;;5052877;28;20057;-78
2022/07/02 02:56:41;;;;;;;13.98;8.50;;;21.20;99.90;;;;;;5052397;28;20103;-78
2022/07/02 02:59:08;;;;;;;12.75;7.80;;;21.10;99.90;;;;;;5052664;28;20060;-78
2022/07/02 03:01:35;;;;;;;10.95;7.68;;;21.10;99.90;;;;;;5052376;28;20048;-78
2022/07/02 03:04:02;;;;;;;11.77;7.50;;;21.10;99.90;;;;;;5035979;28;20041;-77
2022/07/02 03:06:31;;;;;;;13.70;7.97;;;21.10;99.90;;;;;;5051650;28;20053;-78
2022/07/02 03:08:58;;;;;;;12.38;8.25;;;21.10;99.90;;;;;;5052016;28;20466;-78
2022/07/02 03:11:25;;;;;;;13.88;8.45;;;21.10;99.90;;;;;;5053374;28;20516;-77
2022/07/02 03:13:53;;;;;;;14.32;7.90;;;21.10;99.90;;;;;;5051806;28;20084;-78
2022/07/02 03:16:20;;;;;;;13.65;8.52;;;21.10;99.90;;;;;;5051880;28;20049;-77
2022/07/02 03:18:48;;;;;;;10.90;8.40;;;21.10;99.90;;;;;;5035141;28;20160;-77
2022/07/02 03:21:15;;;;;;;14.77;9.82;;;21.10;99.90;;;;;;5052986;28;20124;-78
2022/07/02 03:23:44;;;;;;;13.82;9.60;;;21.20;99.90;;;;;;5051511;28;20057;-78
2022/07/02 03:26:11;;;;;;;15.23;9.35;;;21.20;99.90;;;;;;5051365;28;20517;-78
2022/07/02 03:28:38;;;;;;;15.73;9.52;;;21.20;99.90;;;;;;5052995;28;20550;-78
2022/07/02 03:31:05;;;;;;;16.00;8.70;;;21.20;99.90;;;;;;5051186;28;20682;-78
2022/07/02 03:33:33;;;;;;;14.95;8.93;;;21.20;99.90;;;;;;5051149;28;20049;-78
2022/07/02 03:36:00;;;;;;;12.85;8.20;;;21.20;99.90;;;;;;5053220;28;20064;-78
2022/07/02 03:38:28;;;;;;;10.90;8.57;;;21.20;99.90;;;;;;5052357;28;20077;-77
2022/07/02 03:40:57;;;;;;;10.27;8.88;;;21.20;99.90;;;;;;5052460;28;20049;-77
2022/07/02 03:43:24;;;;;;;13.40;9.15;;;21.20;99.90;;;;;;5051289;28;20155;-77
2022/07/02 03:45:52;;;;;;;12.05;9.60;;;21.20;99.90;;;;;;5050765;28;20056;-77
2022/07/02 03:48:19;;;;;;;17.55;8.90;;;21.30;99.90;;;;;;5051202;28;20432;-77
2022/07/02 03:50:46;;;;;;;14.05;8.73;;;21.30;99.90;;;;;;5050825;28;20218;-77
2022/07/02 03:53:14;;;;;;;14.73;8.52;;;21.30;99.90;;;;;;5052644;28;20053;-77
2022/07/02 03:55:41;;;;;;;16.65;8.25;;;21.40;99.90;;;;;;5050369;28;20056;-77
2022/07/02 03:58:10;;;;;;;13.80;8.77;;;21.40;99.90;;;;;;5050866;28;20532;-77
2022/07/02 04:00:37;;;;;;;12.32;8.30;;;21.50;99.90;;;;;;5050660;28;20045;-77
2022/07/02 04:03:04;;;;;;;10.70;8.02;;;21.50;99.90;;;;;;5052333;28;20052;-78
2022/07/02 04:05:32;;;;;;;15.00;8.95;;;21.60;99.90;;;;;;5051814;28;20102;-77
2022/07/02 04:07:59;;;;;;;12.73;7.50;;;21.70;99.90;;;;;;5052125;28;20095;-76
2022/07/02 04:10:27;;;;;;;22.52;8.77;;;21.70;99.90;;;;;;5050588;28;20459;-76
2022/07/02 04:12:54;;;;;;;13.85;8.38;;;21.80;99.90;;;;;;5051728;28;20571;-76
2022/07/02 04:15:23;;;;;;;18.90;7.80;;;21.80;99.90;;;;;;5051423;28;20059;-76
2022/07/02 04:17:50;;;;;;;15.27;7.65;;;21.90;99.90;;;;;;5051468;28;20075;-74
2022/07/02 04:20:17;;;;;;;12.55;7.13;;;21.90;99.90;;;;;;5050512;28;20048;-74
2022/07/02 04:22:45;;;;;;;16.52;8.13;;;22.00;99.90;;;;;;5051815;28;20579;-74
2022/07/02 04:25:12;;;;;;;10.40;7.00;;;22.10;99.90;;;;;;5051751;28;20060;-74
2022/07/02 04:27:39;;;;;;;14.32;8.23;;;22.20;99.90;;;;;;5033673;28;20452;-74
2022/07/02 04:30:09;;;;;;;17.80;7.30;;;22.30;99.90;;;;;;5050203;28;20052;-74
2022/07/02 04:32:38;;;;;;;11.70;7.18;;;22.40;99.90;;;;;;5051712;28;20064;-74
2022/07/02 04:35:06;;;;;;;11.68;7.47;;;22.50;99.90;;;;;;5050264;28;20048;-75
2022/07/02 04:37:33;;;;;;;8.68;7.20;;;22.60;99.90;;;;;;5051202;28;20049;-74
2022/07/02 04:40:00;;;;;;;16.05;8.25;;;22.70;99.90;;;;;;5050713;28;20067;-75
2022/07/02 04:42:28;;;;;;;15.60;7.88;;;22.80;99.90;;;;;;5033294;28;20059;-74
2022/07/02 04:44:55;;;;;;;15.38;7.88;;;22.90;99.90;;;;;;5049187;28;20417;-75
2022/07/02 04:47:22;;;;;;;13.52;7.45;;;23.00;99.90;;;;;;5049699;28;20045;-75
2022/07/02 04:49:51;;;;;;;14.93;7.60;;;23.10;99.90;;;;;;5050769;28;20048;-75
2022/07/02 04:52:18;;;;;;;14.23;7.13;;;23.20;99.90;;;;;;5049194;28;20110;-76
2022/07/02 04:54:46;;;;;;;12.98;7.45;;;23.30;99.90;;;;;;5051527;28;20053;-75
2022/07/02 04:57:14;;;;;;;16.35;7.70;;;23.40;99.90;;;;;;5032506;28;20068;-75
2022/07/02 04:59:44;;;;;;;13.95;7.95;;;23.50;99.90;;;;;;5050986;28;20057;-75
2022/07/02 05:02:12;;;;;;;14.30;7.93;;;23.50;99.90;;;;;;5049788;28;20057;-75
2022/07/02 05:04:39;;;;;;;20.20;9.10;;;23.50;99.90;;;;;;5032443;28;20053;-75
2022/07/02 05:07:08;;;;;;;17.40;8.20;;;23.60;99.90;;;;;;5048735;28;20430;-76
2022/07/02 05:09:35;;;;;;;15.95;9.02;;;23.70;99.90;;;;;;5049628;28;20059;-75
2022/07/02 05:12:03;;;;;;;16.67;8.25;;;23.80;99.90;;;;;;5050194;28;20048;-75
2022/07/02 05:14:31;;;;;;;13.02;8.57;;;23.90;99.90;;;;;;5050218;28;20064;-75
2022/07/02 05:16:58;;;;;;;37.55;23.60;;;24.00;99.90;;;;;;5050360;28;20575;-75
2022/07/02 05:19:25;;;;;;;26.25;15.70;;;24.20;99.90;;;;;;5049063;28;20342;-74
2022/07/02 05:21:53;;;;;;;12.75;7.95;;;24.30;99.90;;;;;;5050182;28;20057;-74
2022/07/02 05:24:21;;;;;;;15.48;8.38;;;24.40;99.90;;;;;;5050423;28;20517;-74
2022/07/02 05:26:49;;;;;;;24.83;9.65;;;24.60;99.90;;;;;;5050179;28;20118;-75
2022/07/02 05:29:16;;;;;;;17.67;8.18;;;24.70;99.90;;;;;;5049071;28;20045;-74
2022/07/02 05:31:43;;;;;;;16.38;7.78;;;24.90;99.90;;;;;;5048981;28;20049;-75
2022/07/02 05:34:10;;;;;;;13.55;7.90;;;25.10;99.90;;;;;;5049926;28;20045;-75
2022/07/02 05:36:38;;;;;;;12.20;8.13;;;25.30;99.90;;;;;;5032290;28;20049;-75
2022/07/02 05:39:05;;;;;;;17.98;8.27;;;25.50;99.90;;;;;;5048544;28;20049;-75
2022/07/02 05:41:34;;;;;;;13.90;7.18;;;25.60;99.90;;;;;;5048063;28;20040;-74
2022/07/02 05:44:01;;;;;;;13.98;7.65;;;25.90;99.90;;;;;;5049800;28;20060;-75
2022/07/02 05:46:28;;;;;;;15.43;7.50;;;26.30;99.90;;;;;;5048638;28;20045;-75
2022/07/02 05:48:56;;;;;;;19.83;7.35;;;26.70;99.90;;;;;;5050427;28;20052;-76
2022/07/02 05:51:23;;;;;;;18.20;11.13;;;27.20;99.90;;;;;;5049369;28;20040;-76
2022/07/02 05:53:50;;;;;;;11.73;6.60;;;27.70;97.50;;;;;;5049033;28;20080;-76
2022/07/02 05:56:18;;;;;;;20.23;7.05;;;28.30;97.30;;;;;;5048535;28;20068;-77
2022/07/02 05:58:46;;;;;;;13.25;6.53;;;28.70;93.20;;;;;;5048711;28;20415;-76
2022/07/02 06:01:13;;;;;;;16.00;6.05;;;29.20;93.50;;;;;;5048729;28;20072;-77
2022/07/02 06:03:41;;;;;;;7.95;5.80;;;29.70;89.10;;;;;;5048357;28;20057;-76
2022/07/02 06:08:53;;;;;;;17.98;5.95;;;30.70;85.80;;;;;;5049754;28;20125;-76
2022/07/02 06:11:20;;;;;;;16.42;5.97;;;31.20;81.30;;;;;;5049308;28;20430;-77
2022/07/02 06:13:49;;;;;;;10.65;5.95;;;31.70;75.60;;;;;;5048254;28;20045;-77
2022/07/02 06:16:16;;;;;;;11.75;5.88;;;32.30;70.20;;;;;;5048056;28;20049;-77
2022/07/02 06:18:43;;;;;;;14.70;6.35;;;32.30;68.00;;;;;;5047981;28;20491;-77
2022/07/02 06:21:11;;;;;;;18.45;7.22;;;32.70;67.00;;;;;;5053633;28;20078;-77
2022/07/02 06:23:38;;;;;;;12.95;6.55;;;33.10;66.10;;;;;;5052399;28;20394;-77
2022/07/02 06:26:05;;;;;;;12.40;6.32;;;33.20;67.80;;;;;;5035406;28;20068;-77
2022/07/02 06:28:33;;;;;;;27.17;8.10;;;33.20;66.70;;;;;;5035570;28;20049;-77
2022/07/02 06:31:01;;;;;;;12.82;6.88;;;33.30;65.50;;;;;;5052058;28;20060;-77
2022/07/02 06:33:29;;;;;;;13.35;7.40;;;33.60;65.10;;;;;;5053847;28;20048;-77
2022/07/02 06:35:56;;;;;;;17.02;6.68;;;33.90;65.60;;;;;;5054060;28;20068;-77
2022/07/02 06:38:23;;;;;;;9.25;5.60;;;34.20;61.60;;;;;;5053654;28;20045;-78
2022/07/02 06:40:51;;;;;;;10.95;5.95;;;34.40;58.40;;;;;;5053190;28;20040;-78
2022/07/02 06:43:20;;;;;;;10.55;5.82;;;34.40;58.70;;;;;;5053631;28;20052;-77
2022/07/02 06:45:47;;;;;;;13.65;6.40;;;34.40;59.30;;;;;;5053153;28;20053;-76
2022/07/02 06:48:16;;;;;;;9.65;5.63;;;34.40;59.10;;;;;;5051905;28;20099;-77
2022/07/02 06:50:43;;;;;;;9.80;5.70;;;34.80;57.20;;;;;;5050484;28;20076;-78
2022/07/02 06:53:11;;;;;;;11.73;5.55;;;35.00;56.70;;;;;;5051659;28;20045;-78
2022/07/02 06:55:38;;;;;;;11.43;5.70;;;35.30;55.90;;;;;;5052487;28;20059;-77
2022/07/02 06:58:05;;;;;;;11.35;5.30;;;35.40;56.50;;;;;;5052630;28;20512;-78
2022/07/02 07:00:33;;;;;;;10.98;6.18;;;35.60;53.60;;;;;;5052178;28;20049;-75
2022/07/02 07:03:03;;;;;;;10.02;5.32;;;35.50;53.60;;;;;;5051512;28;20477;-76
2022/07/02 07:05:32;;;;;;;10.88;5.28;;;35.60;53.60;;;;;;5049019;28;20045;-77
2022/07/02 07:07:59;;;;;;;8.75;5.38;;;35.70;55.00;;;;;;5048449;28;20052;-75
2022/07/02 07:10:26;;;;;;;11.95;5.30;;;35.70;53.20;;;;;;5047712;28;20044;-75
2022/07/02 07:12:54;;;;;;;12.52;5.57;;;35.50;54.10;;;;;;5051566;28;20041;-75
2022/07/02 07:15:21;;;;;;;4.90;4.50;;;35.50;54.70;;;;;;5051295;28;20107;-75
2022/07/02 07:17:48;;;;;;;5.38;4.22;;;35.60;52.60;;;;;;5050168;28;20044;-76
2022/07/02 07:20:19;;;;;;;7.07;4.20;;;35.70;52.20;;;;;;5052019;28;20049;-76
2022/07/02 07:22:47;;;;;;;4.77;4.33;;;35.80;51.00;;;;;;5049178;28;20055;-76
2022/07/02 07:25:15;;;;;;;4.88;4.05;;;35.90;50.10;;;;;;5050284;28;20136;-76
2022/07/02 07:27:42;;;;;;;3.90;3.65;;;36.10;49.50;;;;;;5051502;28;20053;-76
2022/07/02 07:30:10;;;;;;;4.00;3.60;;;36.00;50.40;;;;;;5050678;28;20046;-76
2022/07/02 07:32:38;;;;;;;5.65;3.97;;;35.90;48.50;;;;;;5050685;28;20037;-76
2022/07/02 07:35:06;;;;;;;10.23;4.43;;;36.30;48.00;;;;;;5050179;28;20445;-76
2022/07/02 07:37:35;;;;;;;3.78;3.58;;;36.30;48.00;;;;;;5049297;28;20139;-75
2022/07/02 07:40:04;;;;;;;5.32;3.40;;;36.30;48.30;;;;;;5050745;28;20140;-76
2022/07/02 07:42:31;;;;;;;6.78;3.58;;;36.70;47.20;;;;;;5050172;28;20041;-76
2022/07/02 07:44:58;;;;;;;3.20;2.88;;;37.30;46.70;;;;;;5045103;28;20052;-76
2022/07/02 07:47:26;;;;;;;3.08;2.72;;;37.70;44.90;;;;;;5049868;28;20033;-76
2022/07/02 07:49:53;;;;;;;3.65;2.95;;;38.20;45.30;;;;;;5048184;28;20053;-76
2022/07/02 07:52:21;;;;;;;5.80;3.08;;;38.40;44.00;;;;;;5048353;28;20087;-76
2022/07/02 07:54:48;;;;;;;9.18;3.83;;;38.50;43.80;;;;;;5051353;28;20574;-77
2022/07/02 07:57:16;;;;;;;6.07;3.60;;;38.70;43.40;;;;;;5049850;28;20504;-77
2022/07/02 07:59:44;;;;;;;3.70;3.00;;;39.10;43.40;;;;;;5049945;28;20049;-75
2022/07/02 08:02:11;;;;;;;3.78;3.13;;;39.20;43.00;;;;;;5049149;28;20049;-76
2022/07/02 08:04:38;;;;;;;2.63;2.42;;;39.20;42.90;;;;;;5050889;28;20118;-76
2022/07/02 08:07:06;;;;;;;3.72;2.80;;;39.20;42.60;;;;;;5052287;28;20136;-76
2022/07/02 08:09:33;;;;;;;6.85;2.85;;;39.10;42.00;;;;;;5051410;28;20091;-77
2022/07/02 08:12:01;;;;;;;5.10;3.05;;;39.20;42.00;;;;;;5050493;28;20079;-77
2022/07/02 08:14:29;;;;;;;3.13;2.45;;;39.50;44.40;;;;;;5050570;28;20072;-76
2022/07/02 08:16:57;;;;;;;2.58;2.45;;;39.90;44.30;;;;;;5051419;28;20095;-77
2022/07/02 08:19:24;;;;;;;4.70;2.95;;;40.30;40.40;;;;;;5051337;28;20130;-77
2022/07/02 08:21:51;;;;;;;7.15;2.80;;;40.70;39.80;;;;;;5051656;28;20501;-76
2022/07/02 08:24:19;;;;;;;4.18;2.83;;;40.80;41.40;;;;;;5051490;28;20053;-76
2022/07/02 08:26:46;;;;;;;3.80;3.00;;;41.00;40.80;;;;;;5047823;28;20063;-76
2022/07/02 08:29:13;;;;;;;4.25;3.50;;;41.20;41.50;;;;;;5051656;28;20055;-75
2022/07/02 08:31:42;;;;;;;4.15;2.55;;;41.30;41.30;;;;;;5050881;28;20518;-76
2022/07/02 08:34:09;;;;;;;3.83;3.00;;;41.70;39.80;;;;;;5051015;28;20049;-75
2022/07/02 08:36:36;;;;;;;5.55;3.25;;;41.40;38.90;;;;;;5050916;28;20075;-75
2022/07/02 08:39:04;;;;;;;10.32;4.43;;;41.10;39.50;;;;;;5048706;28;20045;-76
2022/07/02 08:41:32;;;;;;;5.35;3.60;;;40.70;40.20;;;;;;5049674;28;20091;-76
2022/07/02 08:44:02;;;;;;;6.05;3.10;;;40.10;40.20;;;;;;5051340;28;20073;-76
2022/07/02 08:46:30;;;;;;;4.00;3.60;;;39.80;40.90;;;;;;5051973;28;20048;-76
2022/07/02 08:49:01;;;;;;;5.80;3.42;;;39.30;42.50;;;;;;5050097;28;20052;-76
2022/07/02 08:51:28;;;;;;;17.17;4.00;;;39.30;43.00;;;;;;5046128;28;20049;-76
2022/07/02 08:53:56;;;;;;;4.38;4.00;;;39.60;42.70;;;;;;5050545;28;20118;-76
2022/07/02 08:56:25;;;;;;;8.70;3.58;;;40.00;40.30;;;;;;5049258;28;20536;-76
2022/07/02 08:58:54;;;;;;;8.52;3.47;;;40.00;40.40;;;;;;5049732;28;20060;-76
2022/07/02 09:01:22;;;;;;;5.30;3.75;;;40.10;40.20;;;;;;5051142;28;20119;-76
2022/07/02 09:03:52;;;;;;;7.88;3.78;;;40.30;40.30;;;;;;5051097;28;20048;-76
2022/07/02 09:06:21;;;;;;;6.18;3.95;;;40.20;40.70;;;;;;5049868;28;20045;-76
2022/07/02 09:08:49;;;;;;;8.35;4.40;;;40.30;42.30;;;;;;5049987;28;20293;-75
2022/07/02 09:11:16;;;;;;;4.68;3.75;;;40.60;42.50;;;;;;5050568;28;20045;-75
2022/07/02 09:13:45;;;;;;;5.93;4.40;;;40.80;40.80;;;;;;5048521;28;20460;-76
2022/07/02 09:16:12;;;;;;;8.27;3.90;;;41.10;40.20;;;;;;5051447;28;20449;-78
2022/07/02 09:18:40;;;;;;;14.68;4.63;;;41.00;39.70;;;;;;5050225;28;20118;-77
2022/07/02 09:21:07;;;;;;;9.15;5.50;;;41.30;40.10;;;;;;5046333;28;20131;-76
2022/07/02 09:23:47;;;;;;;7.90;4.20;;;41.10;40.10;;;;;;5048002;28;20056;-77
2022/07/02 09:26:19;;;;;;;6.13;4.82;;;40.90;41.90;;;;;;5045827;28;20064;-77
2022/07/02 09:28:59;;;;;;;7.32;4.70;;;40.80;41.90;;;;;;5046917;28;20516;-77
2022/07/02 09:31:27;;;;;;;7.53;5.15;;;40.80;41.50;;;;;;5069702;28;20147;-76
2022/07/02 09:33:54;;;;;;;7.18;4.20;;;41.10;40.80;;;;;;5048949;28;20465;-76
2022/07/02 09:36:23;;;;;;;12.77;5.15;;;41.40;40.00;;;;;;5047494;28;20064;-74
2022/07/02 09:38:53;;;;;;;11.10;4.35;;;41.30;40.30;;;;;;5048609;28;20106;-75
2022/07/02 09:41:21;;;;;;;8.73;4.35;;;40.70;41.00;;;;;;5047234;28;20040;-76
2022/07/02 09:43:53;;;;;;;8.60;4.45;;;40.30;41.10;;;;;;5045401;28;20044;-75
2022/07/02 09:46:22;;;;;;;12.10;5.32;;;40.40;40.30;;;;;;5047538;28;20135;-75
2022/07/02 09:48:50;;;;;;;9.60;4.55;;;40.60;40.50;;;;;;5047709;28;20049;-75
2022/07/02 09:51:18;;;;;;;7.40;4.93;;;40.60;41.60;;;;;;5048691;28;20040;-75
2022/07/02 09:53:51;;;;;;;6.15;4.32;;;40.40;40.90;;;;;;5047124;28;20063;-74
2022/07/02 09:56:19;;;;;;;6.13;4.53;;;39.90;42.10;;;;;;5039266;28;20114;-75
2022/07/02 09:58:46;;;;;;;7.78;4.45;;;39.80;43.10;;;;;;5028318;28;20049;-74
2022/07/02 10:01:13;;;;;;;7.22;4.30;;;39.60;40.30;;;;;;5045526;28;20143;-75
2022/07/02 10:03:51;;;;;;;7.05;4.50;;;39.50;41.10;;;;;;5049649;28;20456;-75
2022/07/02 10:06:19;;;;;;;8.02;4.05;;;39.30;42.50;;;;;;5046129;28;20497;-76
2022/07/02 10:08:46;;;;;;;11.75;3.97;;;39.30;41.20;;;;;;5035812;28;20125;-76
2022/07/02 10:11:22;;;;;;;6.35;3.47;;;40.10;39.80;;;;;;5052620;28;20067;-75
2022/07/02 10:13:56;;;;;;;9.77;3.90;;;40.90;39.40;;;;;;5049470;28;20063;-75
2022/07/02 10:16:28;;;;;;;7.57;3.67;;;41.80;38.80;;;;;;5045452;28;20048;-75
2022/07/02 10:19:27;;;;;;;7.03;3.78;;;42.20;38.30;;;;;;5046126;28;20057;-76
2022/07/02 10:25:07;;;;;;;9.45;4.32;;;42.40;39.40;;;;;;4980038;23;20419;-75
2022/07/02 10:27:36;;;;;;;7.20;4.28;;;42.80;39.10;;;;;;4893583;29;20524;-76
2022/07/02 10:30:06;;;;;;;8.25;3.63;;;43.30;37.10;;;;;;4874328;29;20045;-76
2022/07/02 10:32:41;;;;;;;5.90;3.88;;;43.50;36.50;;;;;;4886234;29;20053;-76
2022/07/02 10:35:12;;;;;;;7.22;3.78;;;43.60;36.90;;;;;;4890945;29;20151;-76
2022/07/02 10:37:40;;;;;;;6.32;3.58;;;43.00;37.70;;;;;;4892183;29;20056;-76
2022/07/02 10:40:10;;;;;;;7.25;3.88;;;42.90;38.40;;;;;;4890752;29;20548;-76
2022/07/02 10:42:48;;;;;;;4.85;4.05;;;43.20;38.80;;;;;;4886220;29;20100;-77
2022/07/02 10:45:18;;;;;;;5.43;3.85;;;43.70;37.90;;;;;;4888636;29;20163;-77
2022/07/02 10:47:57;;;;;;;8.90;4.50;;;44.10;37.00;;;;;;4891090;29;20057;-75
2022/07/02 10:50:39;;;;;;;8.98;3.67;;;44.30;37.90;;;;;;4882006;29;20076;-75
2022/07/02 10:53:12;;;;;;;8.88;5.13;;;44.50;36.30;;;;;;4889235;29;20049;-75
2022/07/02 10:55:41;;;;;;;7.97;3.97;;;44.80;37.60;;;;;;4889065;29;20060;-75
2022/07/02 10:58:19;;;;;;;10.75;4.22;;;45.10;35.60;;;;;;4864095;29;20429;-76
2022/07/02 11:00:46;;;;;;;5.07;4.18;;;44.50;35.50;;;;;;4890433;29;20353;-76
2022/07/02 11:03:17;;;;;;;4.65;3.40;;;44.10;37.10;;;;;;4873176;29;20408;-76
2022/07/02 11:05:59;;;;;;;4.13;3.70;;;44.10;36.80;;;;;;4891832;29;20076;-76
2022/07/02 11:08:54;;;;;;;3.97;3.53;;;44.40;36.10;;;;;;4885712;29;20097;-75
2022/07/02 11:11:30;;;;;;;3.60;3.30;;;44.30;36.40;;;;;;4860810;29;20075;-75
2022/07/02 11:14:04;;;;;;;6.72;3.78;;;44.60;36.70;;;;;;4862600;29;20059;-74
2022/07/02 11:16:37;;;;;;;7.72;4.05;;;44.90;36.00;;;;;;4890528;29;20457;-76
2022/07/02 11:19:06;;;;;;;5.75;4.00;;;44.90;35.50;;;;;;4894464;29;20673;-75
2022/07/02 11:21:33;;;;;;;5.75;3.30;;;44.50;35.90;;;;;;4894293;29;20398;-75
2022/07/02 11:24:01;;;;;;;4.78;3.92;;;44.10;35.60;;;;;;4892594;29;20053;-76
2022/07/02 11:26:29;;;;;;;4.70;3.60;;;44.20;36.60;;;;;;4877156;29;20056;-76
2022/07/02 11:29:04;;;;;;;4.03;3.63;;;44.70;37.10;;;;;;4890819;29;20115;-77
2022/07/02 11:31:36;;;;;;;7.35;3.88;;;45.10;35.50;;;;;;4891070;29;20075;-77
2022/07/02 11:34:03;;;;;;;6.18;3.30;;;45.40;35.70;;;;;;4892194;29;20064;-77
2022/07/02 11:36:33;;;;;;;7.38;3.97;;;45.60;35.00;;;;;;4895051;29;20056;-77
2022/07/02 11:39:00;;;;;;;5.57;4.05;;;45.90;34.90;;;;;;4892641;29;20067;-77
2022/07/02 11:41:29;;;;;;;6.53;3.55;;;45.90;34.30;;;;;;4897432;29;20521;-77
2022/07/02 11:43:58;;;;;;;4.88;3.60;;;45.70;34.80;;;;;;4894324;29;21145;-77
2022/07/02 11:46:29;;;;;;;6.68;4.00;;;45.50;35.30;;;;;;4893623;29;20056;-76
2022/07/02 11:48:57;;;;;;;;;;;45.40;34.90;;;;;;4894655;29;20080;-76
2022/07/02 11:51:25;;;;;;;6.65;3.97;;;45.30;34.70;;;;;;4890832;29;20021;-76
2022/07/02 11:53:59;;;;;;;5.95;4.65;;;45.10;35.60;;;;;;4891558;29;20151;-74
2022/07/02 11:56:27;;;;;;;4.55;4.20;;;45.40;35.10;;;;;;4890292;29;20524;-76
2022/07/02 11:58:55;;;;;;;5.97;4.55;;;45.50;34.80;;;;;;4863953;29;20112;-75
2022/07/02 12:01:24;;;;;;;6.53;3.53;;;45.70;34.20;;;;;;4892816;29;20049;-77
2022/07/02 12:03:55;;;;;;;5.72;4.03;;;45.90;34.90;;;;;;4891736;29;20059;-76
2022/07/02 12:06:24;;;;;;;;;;;45.90;34.50;;;;;;4895358;29;20063;-76
2022/07/02 12:08:55;;;;;;;7.00;4.15;;;45.80;34.50;;;;;;4893482;29;19967;-76
2022/07/02 12:11:23;;;;;;;5.72;4.20;;;45.50;34.10;;;;;;4891539;29;20068;-76
2022/07/02 12:13:51;;;;;;;5.35;3.72;;;45.50;34.60;;;;;;4893917;29;20087;-76
2022/07/02 12:16:21;;;;;;;5.00;3.40;;;45.10;34.10;;;;;;4893031;29;20461;-77
2022/07/02 12:19:03;;;;;;;3.80;2.75;;;45.00;32.80;;;;;;4891811;29;20444;-74
2022/07/02 12:21:35;;;;;;;4.40;2.92;;;45.20;33.50;;;;;;4894182;29;20152;-76
2022/07/02 12:24:06;;;;;;;3.78;3.40;;;45.50;32.70;;;;;;4889118;29;20068;-76
2022/07/02 12:26:34;;;;;;;3.67;3.08;;;45.90;33.20;;;;;;4889902;29;20099;-76
2022/07/02 12:31:51;;;;;;;5.22;3.25;;;45.50;33.10;;;;;;4873463;29;20109;-76
2022/07/02 12:34:22;;;;;;;3.20;3.03;;;45.50;33.10;;;;;;4892059;29;20052;-76
2022/07/02 12:36:53;;;;;;;;;;;45.70;33.10;;;;;;4843051;29;20062;-77
2022/07/02 12:39:21;;;;;;;3.47;3.17;;;45.70;32.50;;;;;;4874990;29;20288;-76
2022/07/02 12:41:53;;;;;;;6.80;3.58;;;45.70;33.60;;;;;;4891188;29;20056;-76
2022/07/02 12:44:22;;;;;;;7.95;4.20;;;44.90;33.50;;;;;;4891778;29;20064;-76
2022/07/02 12:46:51;;;;;;;4.13;3.42;;;44.30;34.90;;;;;;4891030;29;20501;-75
2022/07/02 12:49:21;;;;;;;4.43;3.97;;;44.10;35.30;;;;;;4890579;29;20088;-75
2022/07/02 12:51:59;;;;;;;3.95;3.55;;;43.90;35.10;;;;;;4875185;29;20494;-75
2022/07/02 12:54:35;;;;;;;10.00;3.67;;;44.00;35.30;;;;;;4872807;29;20051;-76
2022/07/02 12:57:16;;;;;;;6.65;3.50;;;44.30;33.90;;;;;;4891515;29;20584;-76